Time;durP1;ratioP1;P1;durP2;ratioP2;P2;SDS_P1;SDS_P2;PMS_P1;PMS_P2;Temp;Humidity;BMP_temperature;BMP_pressure;BME280_temperature;BME280_humidity;BME280_pressure;Samples;Min_cycle;Max_cycle;Signal;HPM_P1;HPM_P2
2022/05/25 00:01:30;;;;;;;11.43;6.08;;;;;;;;;;1742941;81;21137;-80
2022/05/25 00:03:57;;;;;;;8.93;5.35;;;;;;;;;;1765603;81;21044;-79
2022/05/25 00:06:24;;;;;;;8.53;5.70;;;;;;;;;;1770618;81;21013;-79
2022/05/25 00:08:50;;;;;;;9.60;5.97;;;;;;;;;;1778753;81;21055;-79
2022/05/25 00:11:16;;;;;;;10.60;6.05;;;;;;;;;;1778650;81;21096;-79
2022/05/25 00:13:42;;;;;;;12.58;5.92;;;;;;;;;;1744051;82;21053;-79
2022/05/25 00:16:08;;;;;;;9.73;5.90;;;;;;;;;;1779014;81;21112;-79
2022/05/25 00:18:34;;;;;;;10.23;6.25;;;;;;;;;;1778968;81;21068;-79
2022/05/25 00:21:00;;;;;;;10.85;6.50;;;;;;;;;;1779140;81;21065;-79
2022/05/25 00:23:26;;;;;;;12.80;5.95;;;;;;;;;;1744282;82;21038;-79
2022/05/25 00:25:53;;;;;;;10.15;6.50;;;;;;;;;;1742146;82;21564;-79
2022/05/25 00:28:20;;;;;;;11.30;6.33;;;;;;;;;;1741874;82;21590;-79
2022/05/25 00:30:47;;;;;;;10.28;5.83;;;;;;;;;;1754565;81;20977;-79
2022/05/25 00:33:17;;;;;;;10.18;6.50;;;;;;;;;;1778941;81;20993;-79
2022/05/25 00:35:44;;;;;;;11.18;6.30;;;;;;;;;;1772160;81;21032;-78
2022/05/25 00:38:10;;;;;;;12.63;7.22;;;;;;;;;;1742240;82;21100;-78
2022/05/25 00:40:38;;;;;;;11.43;6.80;;;;;;;;;;1712700;83;21541;-78
2022/05/25 00:43:04;;;;;;;8.83;6.00;;;;;;;;;;1778704;81;21420;-79
2022/05/25 00:45:31;;;;;;;10.85;7.20;;;;;;;;;;1778650;80;21080;-78
2022/05/25 00:47:57;;;;;;;9.73;6.22;;;;;;;;;;1743417;82;21456;-79
2022/05/25 00:50:23;;;;;;;9.63;6.55;;;;;;;;;;1778771;81;20990;-79
2022/05/25 00:52:50;;;;;;;11.50;6.05;;;;;;;;;;1778893;81;21000;-78
2022/05/25 00:55:17;;;;;;;12.03;6.33;;;;;;;;;;1778686;81;20992;-78
2022/05/25 00:57:46;;;;;;;9.13;5.70;;;;;;;;;;1743279;82;21060;-78
2022/05/25 01:00:16;;;;;;;8.95;5.90;;;;;;;;;;1741540;81;21001;-79
2022/05/25 01:05:23;;;;;;;13.83;6.37;;;;;;;;;;1722939;82;21208;-79
2022/05/25 01:08:08;;;;;;;11.20;6.10;;;;;;;;;;1761512;81;21044;-79
2022/05/25 01:10:42;;;;;;;10.98;6.87;;;;;;;;;;1772888;81;21498;-79
2022/05/25 01:13:09;;;;;;;9.70;5.90;;;;;;;;;;1767795;81;21038;-78
2022/05/25 01:15:47;;;;;;;11.88;6.40;;;;;;;;;;1730304;81;21054;-79
2022/05/25 01:18:22;;;;;;;11.45;6.30;;;;;;;;;;1748666;81;21498;-78
2022/05/25 01:20:53;;;;;;;9.73;5.37;;;;;;;;;;1754577;81;21069;-79
2022/05/25 01:23:27;;;;;;;9.38;5.97;;;;;;;;;;1772226;81;21021;-79
2022/05/25 01:25:57;;;;;;;9.20;6.33;;;;;;;;;;1775295;81;21054;-78
2022/05/25 01:28:41;;;;;;;12.13;6.12;;;;;;;;;;1764039;80;21049;-79
2022/05/25 01:31:10;;;;;;;11.20;5.87;;;;;;;;;;1753828;81;21128;-79
2022/05/25 01:33:39;;;;;;;8.55;5.72;;;;;;;;;;1774164;81;21046;-79
2022/05/25 01:36:06;;;;;;;11.20;6.75;;;;;;;;;;1775799;81;21030;-79
2022/05/25 01:38:47;;;;;;;11.28;6.30;;;;;;;;;;1767868;81;21067;-79
2022/05/25 01:41:33;;;;;;;10.48;6.92;;;;;;;;;;1758762;81;21077;-80
2022/05/25 01:44:01;;;;;;;9.98;6.25;;;;;;;;;;1753476;81;21121;-79
2022/05/25 01:46:33;;;;;;;10.18;5.92;;;;;;;;;;1727262;81;21022;-80
2022/05/25 01:49:01;;;;;;;9.75;6.58;;;;;;;;;;1762757;81;21105;-80
2022/05/25 01:51:34;;;;;;;10.35;6.10;;;;;;;;;;1756577;81;21513;-80
2022/05/25 01:54:01;;;;;;;11.60;5.33;;;;;;;;;;1771520;81;21081;-80
2022/05/25 01:56:28;;;;;;;11.05;5.95;;;;;;;;;;1759173;81;21030;-79
2022/05/25 01:58:56;;;;;;;9.93;6.37;;;;;;;;;;1765590;81;20974;-81
2022/05/25 02:01:22;;;;;;;7.55;5.22;;;;;;;;;;1775134;81;21058;-80
2022/05/25 02:06:42;;;;;;;10.58;5.78;;;;;;;;;;1753617;82;21063;-77
2022/05/25 02:09:16;;;;;;;11.18;5.83;;;;;;;;;;1668012;85;21029;-81
2022/05/25 02:11:43;;;;;;;9.05;5.30;;;;;;;;;;1709036;83;21051;-81
2022/05/25 02:14:29;;;;;;;8.73;5.35;;;;;;;;;;1753409;82;21027;-81
2022/05/25 02:17:15;;;;;;;10.18;5.15;;;;;;;;;;1753695;81;21080;-80
2022/05/25 02:20:01;;;;;;;9.23;5.67;;;;;;;;;;1753874;82;21507;-80
2022/05/25 02:22:31;;;;;;;7.90;5.33;;;;;;;;;;1751666;82;21818;-80
2022/05/25 02:25:00;;;;;;;9.30;6.22;;;;;;;;;;1750675;82;21618;-80
2022/05/25 02:27:31;;;;;;;7.40;5.33;;;;;;;;;;1752184;82;21033;-81
2022/05/25 02:29:59;;;;;;;7.92;5.30;;;;;;;;;;1751604;82;21007;-80
2022/05/25 02:32:26;;;;;;;8.70;5.47;;;;;;;;;;1729194;82;21022;-79
2022/05/25 02:34:53;;;;;;;7.85;5.28;;;;;;;;;;1753075;82;21523;-81
2022/05/25 02:37:19;;;;;;;7.45;4.92;;;;;;;;;;1724314;82;21048;-80
2022/05/25 02:39:46;;;;;;;9.48;5.20;;;;;;;;;;1753397;82;21020;-79
2022/05/25 02:42:15;;;;;;;8.13;5.12;;;;;;;;;;1753513;82;21583;-81
2022/05/25 02:44:41;;;;;;;8.10;5.42;;;;;;;;;;1752081;82;20974;-80
2022/05/25 02:47:09;;;;;;;7.35;5.03;;;;;;;;;;1751168;82;21510;-79
2022/05/25 02:49:37;;;;;;;10.63;5.60;;;;;;;;;;1751206;82;21081;-80
2022/05/25 02:52:03;;;;;;;7.70;5.10;;;;;;;;;;1751568;82;21513;-79
2022/05/25 02:54:29;;;;;;;7.75;4.80;;;;;;;;;;1752667;82;21088;-79
2022/05/25 02:56:55;;;;;;;10.18;5.03;;;;;;;;;;1753215;82;21031;-79
2022/05/25 02:59:22;;;;;;;9.00;5.50;;;;;;;;;;1751427;82;21639;-80
2022/05/25 03:01:48;;;;;;;10.58;5.28;;;;;;;;;;1752849;82;21016;-80
2022/05/25 03:04:13;;;;;;;8.40;5.03;;;;;;;;;;1757003;81;21102;-80
2022/05/25 03:06:39;;;;;;;9.10;4.95;;;;;;;;;;1767751;81;21549;-80
2022/05/25 03:09:06;;;;;;;10.00;5.20;;;;;;;;;;1767910;81;21560;-80
2022/05/25 03:11:32;;;;;;;9.00;5.20;;;;;;;;;;1767550;81;21033;-80
2022/05/25 03:13:59;;;;;;;7.72;5.33;;;;;;;;;;1767788;81;21046;-80
2022/05/25 03:16:25;;;;;;;8.83;5.17;;;;;;;;;;1768236;81;21005;-80
2022/05/25 03:18:52;;;;;;;7.40;4.90;;;;;;;;;;1768675;81;21084;-79
2022/05/25 03:21:20;;;;;;;8.78;4.83;;;;;;;;;;1768078;81;21684;-80
2022/05/25 03:23:46;;;;;;;9.00;4.65;;;;;;;;;;1767431;81;21068;-80
2022/05/25 03:26:12;;;;;;;8.70;4.87;;;;;;;;;;1767866;81;21008;-80
2022/05/25 03:28:39;;;;;;;7.08;4.97;;;;;;;;;;1768011;81;21486;-81
2022/05/25 03:31:06;;;;;;;6.47;4.70;;;;;;;;;;1767838;81;21081;-81
2022/05/25 03:33:33;;;;;;;7.20;4.17;;;;;;;;;;1767387;81;21473;-81
2022/05/25 03:35:59;;;;;;;6.17;3.92;;;;;;;;;;1767719;81;21067;-80
2022/05/25 03:38:27;;;;;;;7.45;4.87;;;;;;;;;;1767866;81;21062;-81
2022/05/25 03:40:53;;;;;;;6.67;4.30;;;;;;;;;;1767934;81;20989;-81
2022/05/25 03:43:19;;;;;;;5.95;4.05;;;;;;;;;;1767688;80;21028;-81
2022/05/25 03:45:46;;;;;;;5.28;3.87;;;;;;;;;;1767781;81;21903;-82
2022/05/25 03:48:13;;;;;;;5.67;4.10;;;;;;;;;;1767911;81;21057;-81
2022/05/25 03:50:39;;;;;;;5.60;3.58;;;;;;;;;;1731736;83;21028;-82
2022/05/25 03:53:07;;;;;;;5.55;3.87;;;;;;;;;;1731847;83;21024;-82
2022/05/25 03:55:34;;;;;;;5.75;3.98;;;;;;;;;;1726089;83;21072;-83
2022/05/25 03:58:01;;;;;;;5.50;3.80;;;;;;;;;;1708230;83;21127;-83
2022/05/25 04:00:27;;;;;;;5.37;3.98;;;;;;;;;;1731804;83;21036;-83
2022/05/25 04:02:53;;;;;;;5.65;3.67;;;;;;;;;;1717392;83;20989;-82
2022/05/25 04:05:19;;;;;;;5.45;3.75;;;;;;;;;;1714796;83;21071;-82
2022/05/25 04:07:46;;;;;;;6.62;4.47;;;;;;;;;;1703428;83;21069;-84
2022/05/25 04:10:13;;;;;;;6.97;4.33;;;;;;;;;;1753697;82;21038;-83
2022/05/25 04:12:42;;;;;;;6.85;3.85;;;;;;;;;;1752851;82;22207;-83
2022/05/25 04:15:08;;;;;;;5.12;3.90;;;;;;;;;;1752243;82;20981;-82
2022/05/25 04:17:35;;;;;;;5.97;4.20;;;;;;;;;;1753858;82;21551;-82
2022/05/25 04:20:01;;;;;;;5.30;3.85;;;;;;;;;;1752843;81;21030;-82
2022/05/25 04:22:29;;;;;;;4.47;3.47;;;;;;;;;;1712846;82;21096;-83
2022/05/25 04:24:56;;;;;;;3.83;3.30;;;;;;;;;;1751327;82;21070;-81
2022/05/25 04:27:22;;;;;;;5.50;2.98;;;;;;;;;;1752939;82;21564;-82
2022/05/25 04:29:48;;;;;;;3.95;3.15;;;;;;;;;;1751346;82;21030;-82
2022/05/25 04:32:15;;;;;;;3.95;3.10;;;;;;;;;;1750283;82;21019;-82
2022/05/25 04:34:41;;;;;;;5.15;3.35;;;;;;;;;;1751310;82;20987;-82
2022/05/25 04:39:51;;;;;;;3.98;2.90;;;;;;;;;;1738538;82;21542;-82
2022/05/25 04:42:18;;;;;;;6.67;3.20;;;;;;;;;;1751505;82;21042;-82
2022/05/25 04:44:44;;;;;;;4.92;3.12;;;;;;;;;;1751297;82;21042;-82
2022/05/25 04:47:15;;;;;;;4.50;3.00;;;;;;;;;;1725927;82;21089;-81
2022/05/25 04:49:42;;;;;;;4.17;2.95;;;;;;;;;;1715327;84;21050;-81
2022/05/25 04:52:08;;;;;;;3.67;2.90;;;;;;;;;;1715507;84;21077;-81
2022/05/25 04:54:35;;;;;;;4.33;3.10;;;;;;;;;;1720469;82;21510;-82
2022/05/25 04:57:19;;;;;;;4.83;2.98;;;;;;;;;;1751417;82;20999;-81
2022/05/25 04:59:47;;;;;;;4.37;2.70;;;;;;;;;;1751367;82;21014;-81
2022/05/25 05:02:13;;;;;;;4.22;2.80;;;;;;;;;;1751175;82;21545;-82
2022/05/25 05:04:39;;;;;;;4.12;3.00;;;;;;;;;;1749712;80;21122;-82
2022/05/25 05:07:05;;;;;;;4.53;3.00;;;;;;;;;;1740367;82;21401;-82
2022/05/25 05:09:33;;;;;;;5.20;2.75;;;;;;;;;;1739705;82;21127;-80
2022/05/25 05:11:59;;;;;;;6.03;2.72;;;;;;;;;;1739932;82;21056;-81
2022/05/25 05:14:26;;;;;;;3.85;2.70;;;;;;;;;;1739833;82;21543;-81
2022/05/25 05:16:57;;;;;;;3.65;2.52;;;;;;;;;;1739637;82;21533;-81
2022/05/25 05:19:26;;;;;;;2.92;2.40;;;;;;;;;;1739938;82;20987;-82
2022/05/25 05:21:59;;;;;;;4.37;2.65;;;;;;;;;;1738350;82;21046;-81
2022/05/25 05:24:27;;;;;;;4.92;2.55;;;;;;;;;;1738474;82;21051;-82
2022/05/25 05:26:53;;;;;;;4.67;2.58;;;;;;;;;;1738191;81;21550;-81
2022/05/25 05:29:19;;;;;;;4.78;2.80;;;;;;;;;;1738532;82;21027;-82
2022/05/25 05:31:45;;;;;;;4.12;2.52;;;;;;;;;;1737968;82;21022;-82
2022/05/25 05:34:11;;;;;;;4.75;2.70;;;;;;;;;;1738892;82;21061;-82
2022/05/25 05:36:41;;;;;;;7.03;2.98;;;;;;;;;;1738893;82;21019;-82
2022/05/25 05:39:10;;;;;;;;;;;;;;;;;;1742411;82;21094;-82
2022/05/25 05:41:38;;;;;;;5.33;2.65;;;;;;;;;;1739523;82;20139;-82
2022/05/25 05:44:04;;;;;;;4.05;2.80;;;;;;;;;;1739335;82;21067;-84
2022/05/25 05:46:31;;;;;;;4.03;2.62;;;;;;;;;;1738888;82;21119;-83
2022/05/25 05:48:56;;;;;;;5.70;2.52;;;;;;;;;;1739696;82;21606;-81
2022/05/25 05:51:22;;;;;;;3.25;2.47;;;;;;;;;;1738467;82;20984;-82
2022/05/25 05:53:48;;;;;;;5.25;2.30;;;;;;;;;;1738533;82;21047;-82
2022/05/25 05:56:15;;;;;;;3.98;2.67;;;;;;;;;;1738749;82;20991;-81
2022/05/25 05:58:42;;;;;;;3.58;2.42;;;;;;;;;;1703647;84;21577;-81
2022/05/25 06:01:09;;;;;;;3.40;2.50;;;;;;;;;;1704747;84;21152;-80
2022/05/25 06:03:35;;;;;;;3.95;2.67;;;;;;;;;;1724581;82;21075;-82
2022/05/25 06:06:01;;;;;;;3.62;2.72;;;;;;;;;;1737001;82;21034;-80
2022/05/25 06:08:29;;;;;;;3.42;2.58;;;;;;;;;;1746674;82;21050;-82
2022/05/25 06:10:55;;;;;;;4.35;2.72;;;;;;;;;;1745969;82;21555;-82
2022/05/25 06:13:21;;;;;;;4.40;2.85;;;;;;;;;;1754059;82;21031;-81
2022/05/25 06:21:17;;;;;;;5.42;2.90;;;;;;;;;;1751831;82;21010;-81
2022/05/25 06:23:43;;;;;;;5.05;2.85;;;;;;;;;;1751821;82;21042;-81
2022/05/25 06:26:09;;;;;;;5.17;2.83;;;;;;;;;;1751932;82;21081;-82
2022/05/25 06:28:35;;;;;;;4.92;2.90;;;;;;;;;;1751910;82;21121;-82
2022/05/25 06:31:01;;;;;;;6.28;2.98;;;;;;;;;;1753302;82;21060;-82
2022/05/25 06:33:27;;;;;;;4.10;3.17;;;;;;;;;;1754375;82;21053;-82
2022/05/25 06:35:53;;;;;;;4.33;2.87;;;;;;;;;;1754010;82;21024;-82
2022/05/25 06:38:19;;;;;;;4.55;2.80;;;;;;;;;;1748593;82;21014;-79
2022/05/25 06:40:46;;;;;;;3.72;2.65;;;;;;;;;;1751577;82;21073;-81
2022/05/25 06:43:13;;;;;;;4.20;2.40;;;;;;;;;;1751861;82;21501;-82
2022/05/25 06:45:38;;;;;;;4.50;2.70;;;;;;;;;;1751665;82;21007;-82
2022/05/25 06:48:07;;;;;;;5.33;3.15;;;;;;;;;;1752172;82;21002;-81
2022/05/25 06:50:34;;;;;;;3.72;2.67;;;;;;;;;;1717178;84;21042;-80
2022/05/25 06:53:00;;;;;;;4.25;2.60;;;;;;;;;;1674234;86;21138;-83
2022/05/25 06:55:26;;;;;;;4.35;2.45;;;;;;;;;;1698026;84;21032;-80
2022/05/25 06:57:52;;;;;;;2.37;2.15;;;;;;;;;;1751778;82;21680;-82
2022/05/25 07:00:18;;;;;;;3.33;2.30;;;;;;;;;;1714341;83;21015;-81
2022/05/25 07:02:45;;;;;;;3.95;2.50;;;;;;;;;;1753176;80;21104;-82
2022/05/25 07:05:11;;;;;;;3.65;2.50;;;;;;;;;;1752347;81;21052;-82
2022/05/25 07:07:38;;;;;;;6.28;2.67;;;;;;;;;;1763096;81;21137;-84
2022/05/25 07:10:05;;;;;;;2.77;2.20;;;;;;;;;;1763368;81;21540;-82
2022/05/25 07:12:33;;;;;;;3.02;2.30;;;;;;;;;;1763566;81;21023;-81
2022/05/25 07:14:59;;;;;;;3.10;2.05;;;;;;;;;;1760733;81;21160;-85
2022/05/25 07:17:25;;;;;;;3.67;2.25;;;;;;;;;;1764502;81;21033;-82
2022/05/25 07:19:51;;;;;;;3.80;2.27;;;;;;;;;;1762877;81;20991;-83
2022/05/25 07:22:17;;;;;;;5.45;2.10;;;;;;;;;;1746548;81;21088;-85
2022/05/25 07:24:44;;;;;;;4.72;2.30;;;;;;;;;;1763443;81;21054;-83
2022/05/25 07:27:12;;;;;;;4.85;2.42;;;;;;;;;;1771069;81;21024;-83
2022/05/25 07:29:38;;;;;;;2.10;1.90;;;;;;;;;;1767042;81;21069;-84
2022/05/25 07:32:04;;;;;;;2.47;2.05;;;;;;;;;;1764761;81;21001;-83
2022/05/25 07:34:32;;;;;;;10.70;2.37;;;;;;;;;;1765204;81;21088;-82
2022/05/25 07:37:00;;;;;;;3.27;2.20;;;;;;;;;;1762664;81;21045;-81
2022/05/25 07:39:27;;;;;;;3.10;2.20;;;;;;;;;;1763467;81;21513;-82
2022/05/25 07:41:54;;;;;;;3.30;2.10;;;;;;;;;;1771437;81;21009;-83
2022/05/25 07:44:23;;;;;;;1.92;1.72;;;;;;;;;;1765038;81;21068;-83
2022/05/25 07:46:50;;;;;;;2.40;1.92;;;;;;;;;;1763209;81;21100;-84
2022/05/25 07:49:16;;;;;;;3.12;1.90;;;;;;;;;;1763260;81;21131;-84
2022/05/25 07:51:42;;;;;;;4.08;2.10;;;;;;;;;;1763820;80;21073;-84
2022/05/25 07:54:09;;;;;;;4.10;2.15;;;;;;;;;;1764098;81;21534;-85
2022/05/25 07:56:37;;;;;;;3.70;2.00;;;;;;;;;;1763493;81;21048;-83
2022/05/25 07:59:04;;;;;;;5.45;2.15;;;;;;;;;;1765016;81;21014;-84
2022/05/25 08:07:01;;;;;;;2.62;2.20;;;;;;;;;;1731780;82;21067;-83
2022/05/25 08:09:27;;;;;;;2.98;2.30;;;;;;;;;;1692509;83;21083;-84
2022/05/25 08:11:56;;;;;;;2.80;2.42;;;;;;;;;;1703801;84;21040;-83
2022/05/25 08:14:25;;;;;;;2.98;2.22;;;;;;;;;;1753185;81;21110;-83
2022/05/25 08:16:51;;;;;;;2.62;2.20;;;;;;;;;;1754646;82;21016;-84
2022/05/25 08:19:19;;;;;;;3.08;2.30;;;;;;;;;;1754559;82;21067;-83
2022/05/25 08:21:47;;;;;;;3.87;2.27;;;;;;;;;;1754456;82;21076;-84
2022/05/25 08:24:13;;;;;;;2.50;2.10;;;;;;;;;;1754699;82;21075;-83
2022/05/25 08:26:40;;;;;;;3.75;2.15;;;;;;;;;;1755003;82;21024;-83
2022/05/25 08:29:06;;;;;;;2.80;2.10;;;;;;;;;;1755237;82;21091;-84
2022/05/25 08:31:32;;;;;;;2.80;2.10;;;;;;;;;;1754244;82;20992;-84
2022/05/25 08:33:58;;;;;;;3.00;2.35;;;;;;;;;;1754241;82;21008;-85
2022/05/25 08:36:24;;;;;;;5.65;2.35;;;;;;;;;;1754385;82;21044;-84
2022/05/25 08:38:52;;;;;;;2.50;2.10;;;;;;;;;;1754648;82;21032;-85
2022/05/25 08:41:20;;;;;;;5.15;2.40;;;;;;;;;;1754610;82;21047;-84
2022/05/25 08:43:47;;;;;;;4.25;2.10;;;;;;;;;;1754705;82;21083;-84
2022/05/25 08:46:19;;;;;;;3.80;2.25;;;;;;;;;;1754725;82;21035;-83
2022/05/25 08:48:45;;;;;;;3.00;2.20;;;;;;;;;;1754698;82;21520;-84
2022/05/25 08:51:14;;;;;;;2.70;2.20;;;;;;;;;;1725163;82;21099;-84
2022/05/25 08:53:40;;;;;;;3.65;2.60;;;;;;;;;;1754169;81;21028;-83
2022/05/25 08:56:15;;;;;;;2.50;2.05;;;;;;;;;;1754312;82;21094;-83
2022/05/25 08:58:49;;;;;;;3.62;2.50;;;;;;;;;;1754423;82;21059;-82
2022/05/25 09:02:26;;;;;;;3.50;2.27;;;;;;;;;;1861072;76;22816;-86
2022/05/25 09:04:58;;;;;;;3.47;2.00;;;;;;;;;;1854095;77;21053;-83
2022/05/25 09:07:28;;;;;;;3.75;2.10;;;;;;;;;;1847350;77;21072;-82
2022/05/25 09:09:54;;;;;;;7.08;2.62;;;;;;;;;;1833524;77;21025;-81
2022/05/25 09:12:39;;;;;;;3.25;2.20;;;;;;;;;;1833934;77;20974;-83
2022/05/25 09:15:13;;;;;;;3.12;2.25;;;;;;;;;;1832546;77;21045;-82
2022/05/25 09:17:41;;;;;;;4.45;2.35;;;;;;;;;;1840134;77;21053;-82
2022/05/25 09:20:08;;;;;;;3.80;2.30;;;;;;;;;;1863413;77;21009;-83
2022/05/25 09:22:34;;;;;;;3.62;2.33;;;;;;;;;;1854512;77;21014;-82
2022/05/25 09:25:02;;;;;;;4.25;2.50;;;;;;;;;;1855590;77;21025;-82
2022/05/25 09:27:30;;;;;;;2.98;2.37;;;;;;;;;;1855296;77;21008;-82
2022/05/25 09:29:58;;;;;;;3.40;2.55;;;;;;;;;;1853950;77;21000;-82
2022/05/25 09:32:32;;;;;;;4.58;2.60;;;;;;;;;;1853929;77;21059;-82
2022/05/25 09:35:06;;;;;;;3.08;2.27;;;;;;;;;;1843910;77;21056;-83
2022/05/25 09:37:40;;;;;;;2.67;2.08;;;;;;;;;;1857038;77;21123;-85
2022/05/25 09:40:10;;;;;;;2.60;2.20;;;;;;;;;;1772074;80;21584;-82
2022/05/25 09:42:37;;;;;;;2.77;2.30;;;;;;;;;;1765457;81;21075;-82
2022/05/25 09:45:11;;;;;;;2.87;2.20;;;;;;;;;;1788079;80;21049;-82
2022/05/25 09:47:41;;;;;;;4.35;2.33;;;;;;;;;;1774069;80;21051;-83
2022/05/25 09:50:08;;;;;;;3.33;2.30;;;;;;;;;;1813461;79;20987;-82
2022/05/25 09:52:36;;;;;;;5.08;2.40;;;;;;;;;;1798743;79;21061;-82
2022/05/25 09:55:07;;;;;;;2.90;2.15;;;;;;;;;;1821829;79;21474;-81
2022/05/25 09:57:34;;;;;;;3.08;2.22;;;;;;;;;;1806653;79;20993;-81
2022/05/25 10:00:03;;;;;;;3.20;2.20;;;;;;;;;;1789134;80;21572;-81
2022/05/25 10:02:37;;;;;;;3.62;2.30;;;;;;;;;;1788117;80;21133;-81
2022/05/25 10:05:08;;;;;;;3.55;2.40;;;;;;;;;;1772411;81;21519;-82
2022/05/25 10:07:37;;;;;;;4.80;2.40;;;;;;;;;;1785322;80;21042;-81
2022/05/25 10:10:04;;;;;;;5.50;2.30;;;;;;;;;;1786845;80;21030;-82
2022/05/25 10:12:34;;;;;;;4.08;2.08;;;;;;;;;;1786942;80;21003;-81
2022/05/25 10:15:03;;;;;;;2.95;2.17;;;;;;;;;;1782041;79;21541;-80
2022/05/25 10:17:34;;;;;;;4.37;2.27;;;;;;;;;;1817979;79;21028;-82
2022/05/25 10:20:01;;;;;;;4.30;2.33;;;;;;;;;;1772474;81;21067;-81
2022/05/25 10:22:31;;;;;;;6.05;2.40;;;;;;;;;;1803890;79;20990;-82
2022/05/25 10:25:00;;;;;;;3.02;2.25;;;;;;;;;;1819978;79;21501;-82
2022/05/25 10:27:28;;;;;;;3.10;2.17;;;;;;;;;;1819714;79;21582;-82
2022/05/25 10:38:17;;;;;;;3.85;2.33;;;;;;;;;;1787801;80;21026;-81
2022/05/25 10:40:44;;;;;;;2.70;2.30;;;;;;;;;;1756050;82;21050;-82
2022/05/25 10:43:12;;;;;;;2.72;2.10;;;;;;;;;;1765224;79;20993;-81
2022/05/25 10:45:39;;;;;;;2.72;2.10;;;;;;;;;;1767670;81;21066;-82
2022/05/25 10:48:09;;;;;;;2.67;2.17;;;;;;;;;;1792574;79;21597;-82
2022/05/25 10:50:37;;;;;;;2.58;2.30;;;;;;;;;;1765617;81;21498;-81
2022/05/25 10:53:08;;;;;;;2.35;2.00;;;;;;;;;;1768684;81;21024;-81
2022/05/25 10:55:41;;;;;;;2.62;2.00;;;;;;;;;;1806458;79;21634;-83
2022/05/25 10:58:10;;;;;;;2.80;2.10;;;;;;;;;;1804800;79;21089;-82
2022/05/25 11:00:38;;;;;;;2.42;2.05;;;;;;;;;;1785121;79;21557;-83
2022/05/25 11:03:09;;;;;;;3.95;1.95;;;;;;;;;;1789260;80;21049;-83
2022/05/25 11:05:55;;;;;;;3.22;2.22;;;;;;;;;;1761919;80;21055;-83
2022/05/25 11:08:24;;;;;;;21.25;3.65;;;;;;;;;;1783099;80;21071;-83
2022/05/25 11:10:55;;;;;;;8.63;2.40;;;;;;;;;;1790829;80;21033;-83
2022/05/25 11:13:28;;;;;;;5.42;2.40;;;;;;;;;;1743512;80;21063;-83
2022/05/25 11:16:02;;;;;;;2.40;2.00;;;;;;;;;;1797791;78;21097;-84
2022/05/25 11:18:33;;;;;;;3.65;2.00;;;;;;;;;;1780657;81;21040;-84
2022/05/25 11:21:04;;;;;;;3.40;2.25;;;;;;;;;;1781508;80;20977;-83
2022/05/25 11:23:41;;;;;;;5.60;2.10;;;;;;;;;;1792744;80;21023;-84
2022/05/25 11:26:12;;;;;;;4.70;2.08;;;;;;;;;;1797018;80;21092;-83
2022/05/25 11:28:58;;;;;;;3.27;2.00;;;;;;;;;;1821056;79;21006;-82
2022/05/25 11:31:26;;;;;;;3.87;2.25;;;;;;;;;;1792249;79;21075;-83
2022/05/25 11:34:05;;;;;;;3.00;2.17;;;;;;;;;;1791970;80;20961;-82
2022/05/25 11:36:48;;;;;;;6.30;2.42;;;;;;;;;;1812699;79;21097;-83
2022/05/25 11:39:16;;;;;;;5.50;2.37;;;;;;;;;;1785984;80;20997;-84
2022/05/25 11:41:47;;;;;;;2.90;1.92;;;;;;;;;;1791367;80;21099;-83
2022/05/25 11:44:14;;;;;;;3.50;2.15;;;;;;;;;;1814890;79;21002;-82
2022/05/25 11:46:42;;;;;;;2.87;2.10;;;;;;;;;;1813295;79;21028;-82
2022/05/25 11:49:27;;;;;;;4.03;2.20;;;;;;;;;;1805021;79;21085;-84
2022/05/25 11:51:55;;;;;;;4.03;2.20;;;;;;;;;;1824574;79;21062;-83
2022/05/25 11:54:32;;;;;;;2.27;1.87;;;;;;;;;;1807568;79;21023;-83
2022/05/25 11:57:00;;;;;;;2.40;2.00;;;;;;;;;;1793059;80;21118;-81
2022/05/25 11:59:36;;;;;;;2.80;2.30;;;;;;;;;;1793241;80;21294;-82
2022/05/25 12:02:10;;;;;;;2.47;2.02;;;;;;;;;;1793025;80;21623;-84
2022/05/25 12:04:52;;;;;;;2.87;2.00;;;;;;;;;;1793194;80;21009;-83
2022/05/25 12:07:36;;;;;;;2.83;2.10;;;;;;;;;;1816296;79;21012;-83
2022/05/25 12:10:10;;;;;;;3.30;2.30;;;;;;;;;;1819042;79;21520;-84
2022/05/25 12:12:50;;;;;;;25.40;4.25;;;;;;;;;;1819444;79;21045;-81
2022/05/25 12:15:18;;;;;;;6.25;2.40;;;;;;;;;;1819389;79;20961;-82
2022/05/25 12:18:06;;;;;;;2.72;2.17;;;;;;;;;;1819491;79;20985;-82
2022/05/25 12:20:34;;;;;;;4.12;2.30;;;;;;;;;;1823632;79;21057;-82
2022/05/25 12:23:02;;;;;;;4.90;2.40;;;;;;;;;;1818907;79;21056;-82
2022/05/25 12:25:28;;;;;;;3.17;2.10;;;;;;;;;;1756111;82;21067;-81
2022/05/25 12:27:55;;;;;;;3.77;2.40;;;;;;;;;;1743466;82;21534;-84
2022/05/25 12:30:27;;;;;;;3.15;2.15;;;;;;;;;;1765066;81;21073;-83
2022/05/25 12:32:53;;;;;;;2.47;1.72;;;;;;;;;;1765301;81;21074;-82
2022/05/25 12:35:19;;;;;;;2.90;2.60;;;;;;;;;;1766410;81;21520;-84
2022/05/25 12:37:47;;;;;;;3.30;2.00;;;;;;;;;;1765678;81;21101;-84
2022/05/25 12:40:29;;;;;;;4.95;2.35;;;;;;;;;;1766472;81;20994;-82
2022/05/25 12:42:55;;;;;;;4.20;2.27;;;;;;;;;;1788593;80;21016;-83
2022/05/25 12:48:32;;;;;;;3.75;2.25;;;;;;;;;;1757532;82;21030;-83
2022/05/25 12:51:02;;;;;;;3.83;2.30;;;;;;;;;;1746644;78;20972;-83
2022/05/25 12:53:31;;;;;;;3.20;2.22;;;;;;;;;;1778316;79;20977;-79
2022/05/25 12:55:59;;;;;;;3.08;2.10;;;;;;;;;;1775012;81;21012;-82
2022/05/25 12:58:34;;;;;;;5.75;2.50;;;;;;;;;;1774957;81;21047;-81
2022/05/25 13:01:01;;;;;;;2.70;2.10;;;;;;;;;;1774935;81;21036;-83
2022/05/25 13:03:40;;;;;;;10.05;2.87;;;;;;;;;;1775641;81;21039;-83
2022/05/25 13:06:07;;;;;;;4.17;2.60;;;;;;;;;;1777611;81;21016;-82
2022/05/25 13:08:52;;;;;;;4.95;2.05;;;;;;;;;;1777746;77;21043;-82
2022/05/25 13:11:36;;;;;;;4.50;2.00;;;;;;;;;;1776447;77;21541;-84
2022/05/25 13:14:03;;;;;;;3.17;2.08;;;;;;;;;;1777606;77;21075;-83
2022/05/25 13:16:48;;;;;;;8.35;2.65;;;;;;;;;;1777564;77;21118;-82
2022/05/25 13:19:21;;;;;;;5.28;2.17;;;;;;;;;;1777882;80;21016;-83
2022/05/25 13:22:02;;;;;;;7.78;2.92;;;;;;;;;;1777897;80;21016;-83
2022/05/25 13:24:41;;;;;;;2.60;2.20;;;;;;;;;;1776001;79;21011;-82
2022/05/25 13:27:16;;;;;;;3.02;1.95;;;;;;;;;;1777692;81;20995;-83
2022/05/25 13:29:58;;;;;;;4.28;2.27;;;;;;;;;;1777750;77;21300;-82
2022/05/25 13:32:41;;;;;;;2.92;2.10;;;;;;;;;;1777779;77;21027;-82
2022/05/25 13:35:12;;;;;;;2.35;1.98;;;;;;;;;;1790365;77;21031;-81
2022/05/25 13:37:38;;;;;;;3.45;2.20;;;;;;;;;;1783581;79;21023;-81
2022/05/25 13:40:07;;;;;;;4.72;2.17;;;;;;;;;;1792498;79;20980;-81
2022/05/25 13:42:34;;;;;;;5.33;1.90;;;;;;;;;;1781679;79;21060;-82
2022/05/25 13:45:02;;;;;;;3.17;2.20;;;;;;;;;;1808321;79;20964;-82
2022/05/25 13:47:28;;;;;;;2.92;2.00;;;;;;;;;;1808219;79;21011;-80
2022/05/25 13:50:00;;;;;;;7.67;2.65;;;;;;;;;;1795765;79;21032;-82
2022/05/25 13:52:24;;;;;;;4.05;2.20;;;;;;;;;;1775275;79;21020;-82
2022/05/25 13:54:52;;;;;;;2.45;1.95;;;;;;;;;;1792927;78;21044;-82
2022/05/25 13:57:38;;;;;;;3.22;2.30;;;;;;;;;;1790961;80;21067;-82
2022/05/25 14:00:18;;;;;;;3.62;2.30;;;;;;;;;;1786627;79;21046;-82
2022/05/25 14:02:45;;;;;;;4.50;2.17;;;;;;;;;;1775832;80;21087;-83
2022/05/25 14:05:11;;;;;;;2.83;2.22;;;;;;;;;;1787912;79;21011;-82
2022/05/25 14:07:39;;;;;;;3.15;2.15;;;;;;;;;;1787702;79;21525;-82
2022/05/25 14:13:16;;;;;;;9.50;2.40;;;;;;;;;;1776273;81;21027;-82
2022/05/25 14:16:00;;;;;;;2.77;2.00;;;;;;;;;;1776381;81;21098;-82
2022/05/25 14:18:26;;;;;;;;;;;;;;;;;;1804974;79;20999;-82
2022/05/25 14:20:53;;;;;;;3.33;2.10;;;;;;;;;;1787587;79;20097;-84
2022/05/25 14:23:20;;;;;;;3.87;2.12;;;;;;;;;;1773820;81;21073;-82
2022/05/25 14:25:46;;;;;;;3.35;2.20;;;;;;;;;;1773580;79;21079;-83
2022/05/25 14:28:15;;;;;;;8.38;6.60;;;;;;;;;;1774962;79;21044;-82
2022/05/25 14:30:41;;;;;;;4.50;2.83;;;;;;;;;;1774039;81;21079;-83
2022/05/25 14:33:09;;;;;;;5.08;2.55;;;;;;;;;;1778281;79;21020;-83
2022/05/25 14:35:36;;;;;;;2.83;2.00;;;;;;;;;;1773504;81;21082;-82
2022/05/25 14:38:06;;;;;;;6.72;2.55;;;;;;;;;;1801566;79;21044;-82
2022/05/25 14:40:34;;;;;;;4.45;2.40;;;;;;;;;;1805371;79;21067;-84
2022/05/25 14:43:01;;;;;;;3.47;2.05;;;;;;;;;;1789270;79;21023;-83
2022/05/25 14:45:27;;;;;;;2.98;2.00;;;;;;;;;;1788023;79;21050;-82
2022/05/25 14:47:57;;;;;;;3.62;2.27;;;;;;;;;;1804913;79;21072;-84
2022/05/25 14:50:28;;;;;;;3.50;2.20;;;;;;;;;;1788298;79;21043;-83
2022/05/25 14:52:57;;;;;;;14.33;3.20;;;;;;;;;;1805242;79;21507;-83
2022/05/25 14:55:25;;;;;;;3.33;2.00;;;;;;;;;;1805279;79;21059;-83
2022/05/25 14:58:00;;;;;;;2.72;2.25;;;;;;;;;;1781454;79;21078;-84
2022/05/25 15:00:27;;;;;;;3.00;2.00;;;;;;;;;;1785040;79;21282;-85
2022/05/25 15:03:00;;;;;;;11.05;2.67;;;;;;;;;;1775276;79;21075;-83
2022/05/25 15:05:30;;;;;;;2.80;2.02;;;;;;;;;;1774567;81;21059;-83
2022/05/25 15:07:56;;;;;;;4.47;2.00;;;;;;;;;;1770718;79;21309;-83
2022/05/25 15:10:29;;;;;;;2.50;1.95;;;;;;;;;;1789128;79;21506;-82
2022/05/25 15:12:55;;;;;;;2.95;2.25;;;;;;;;;;1804680;79;21039;-83
2022/05/25 15:18:33;;;;;;;5.65;2.30;;;;;;;;;;1805092;79;21062;-82
2022/05/25 15:21:01;;;;;;;3.30;2.02;;;;;;;;;;1775890;79;21059;-83
2022/05/25 15:23:34;;;;;;;4.58;2.17;;;;;;;;;;1773286;81;21032;-84
2022/05/25 15:26:16;;;;;;;2.90;2.00;;;;;;;;;;1800139;79;21047;-84
2022/05/25 15:28:43;;;;;;;5.25;2.22;;;;;;;;;;1800348;79;21071;-83
2022/05/25 15:31:14;;;;;;;2.85;2.30;;;;;;;;;;1804432;79;21554;-82
2022/05/25 15:33:42;;;;;;;18.92;3.45;;;;;;;;;;1800184;79;21064;-83